Time;durP1;ratioP1;P1;durP2;ratioP2;P2;SDS_P1;SDS_P2;PMS_P1;PMS_P2;Temp;Humidity;BMP_temperature;BMP_pressure;BME280_temperature;BME280_humidity;BME280_pressure;Samples;Min_cycle;Max_cycle;Signal;HPM_P1;HPM_P2
2021/06/09 00:02:12;;;;;;;;;7.50;7.00;;;;;19.65;52.75;101924.34;5064297;27;45501;-64
2021/06/09 00:04:37;;;;;;;;;7.25;6.25;;;;;19.64;53.18;101927.22;5061521;27;45512;-65
2021/06/09 00:07:03;;;;;;;;;8.00;7.00;;;;;19.61;53.66;101930.22;5070157;27;45542;-65
2021/06/09 00:09:29;;;;;;;;;7.00;7.00;;;;;19.57;53.29;101928.94;5064784;27;45562;-67
2021/06/09 00:11:54;;;;;;;;;7.00;6.00;;;;;19.54;53.62;101930.97;5065693;27;45374;-67
2021/06/09 00:14:19;;;;;;;;;6.00;6.00;;;;;19.49;53.11;101924.50;5066416;27;45615;-68
2021/06/09 00:16:45;;;;;;;;;6.25;6.00;;;;;19.47;53.18;101926.50;5067614;27;45696;-67
2021/06/09 00:19:12;;;;;;;;;6.50;6.50;;;;;19.44;53.33;101927.69;5067585;27;46410;-63
2021/06/09 00:21:38;;;;;;;;;5.75;5.75;;;;;19.42;53.28;101924.38;5070328;27;45530;-65
2021/06/09 00:24:04;;;;;;;;;6.00;6.00;;;;;19.40;53.66;101925.56;5072195;27;45593;-68
2021/06/09 00:26:30;;;;;;;;;6.75;6.00;;;;;19.37;53.14;101924.06;5064649;27;45668;-64
2021/06/09 00:28:55;;;;;;;;;7.25;7.25;;;;;19.34;52.84;101922.56;5069800;27;45413;-67
2021/06/09 00:31:21;;;;;;;;;7.00;7.00;;;;;19.32;53.04;101919.25;5069096;27;45565;-67
2021/06/09 00:33:46;;;;;;;;;7.00;7.00;;;;;19.32;53.04;101919.25;5070995;27;45954;-68
2021/06/09 00:36:12;;;;;;;;;7.50;6.75;;;;;19.30;53.17;101912.38;5067947;27;45498;-65
2021/06/09 00:38:37;;;;;;;;;7.00;6.00;;;;;19.28;52.93;101922.44;5066546;27;48365;-65
2021/06/09 00:41:03;;;;;;;;;6.75;6.75;;;;;19.28;52.85;101911.72;5067645;27;45608;-64
2021/06/09 00:43:34;;;;;;;;;5.00;5.00;;;;;19.26;52.96;101914.59;5067400;27;46393;-65
2021/06/09 00:46:07;;;;;;;;;7.75;6.50;;;;;19.24;53.13;101913.13;5071916;27;45531;-64
2021/06/09 00:48:35;;;;;;;;;5.00;5.00;;;;;19.23;53.15;101911.44;5067951;27;46215;-67
2021/06/09 00:51:07;;;;;;;;;4.50;4.50;;;;;19.22;53.28;101902.56;5068137;27;45633;-68
2021/06/09 00:53:35;;;;;;;;;6.75;5.25;;;;;19.20;53.36;101904.56;5064807;27;45511;-63
2021/06/09 00:56:12;;;;;;;;;6.75;6.75;;;;;19.19;53.46;101912.78;5064770;27;45600;-65
2021/06/09 00:58:39;;;;;;;;;6.00;6.00;;;;;19.15;53.30;101911.50;5067817;27;46234;-64
2021/06/09 01:01:06;;;;;;;;;6.75;5.25;;;;;19.13;53.21;101909.81;5069149;27;45855;-63
2021/06/09 01:03:32;;;;;;;;;6.75;6.75;;;;;19.13;53.09;101904.44;5068571;27;45597;-65
2021/06/09 01:05:58;;;;;;;;;6.00;6.00;;;;;19.11;54.06;101903.81;5067651;27;45830;-65
2021/06/09 01:08:24;;;;;;;;;7.75;7.25;;;;;19.06;54.03;101908.84;5065589;27;47277;-64
2021/06/09 01:10:51;;;;;;;;;6.50;6.50;;;;;19.02;54.13;101902.19;5067634;27;45562;-67
2021/06/09 01:13:20;;;;;;;;;7.00;7.00;;;;;18.97;54.41;101904.56;5069074;27;45514;-65
2021/06/09 01:15:46;;;;;;;;;7.25;7.00;;;;;18.91;54.53;101911.44;5072107;27;45506;-68
2021/06/09 01:18:11;;;;;;;;;7.00;7.00;;;;;18.86;54.21;101902.28;5067907;27;50928;-64
2021/06/09 01:20:37;;;;;;;;;6.25;6.00;;;;;18.80;55.41;101906.50;5067214;27;45622;-64
2021/06/09 01:23:04;;;;;;;;;8.50;6.75;;;;;18.76;55.14;101904.34;5067362;27;45384;-65
2021/06/09 01:25:31;;;;;;;;;6.00;5.50;;;;;18.72;55.98;101905.66;5065053;27;45797;-64
2021/06/09 01:27:56;;;;;;;;;7.00;7.00;;;;;18.64;55.49;101898.50;5069316;27;45766;-68
2021/06/09 01:30:22;;;;;;;;;8.75;7.00;;;;;18.59;55.56;101904.38;5067179;27;45605;-68
2021/06/09 01:32:50;;;;;;;;;6.75;6.00;;;;;18.53;56.16;101899.72;5070160;27;45510;-67
2021/06/09 01:35:17;;;;;;;;;8.75;7.25;;;;;18.47;55.49;101895.06;5071754;27;45543;-67
2021/06/09 01:37:42;;;;;;;;;5.25;5.25;;;;;18.42;56.11;101897.41;5072049;27;46653;-64
2021/06/09 01:40:12;;;;;;;;;8.00;6.00;;;;;18.37;56.13;101895.28;5074435;27;45534;-67
2021/06/09 01:42:38;;;;;;;;;8.50;6.50;;;;;18.34;56.26;101894.78;5077451;27;45854;-67
2021/06/09 01:45:06;;;;;;;;;6.00;6.00;;;;;18.29;56.27;101895.28;5068495;27;45448;-66
2021/06/09 01:47:31;;;;;;;;;5.25;5.25;;;;;18.25;56.37;101904.69;5083114;27;47291;-65
2021/06/09 01:49:56;;;;;;;;;5.75;5.75;;;;;18.20;56.30;101896.31;5072386;27;45658;-65
2021/06/09 01:52:22;;;;;;;;;6.00;5.50;;;;;18.17;56.65;101894.81;5071326;27;45424;-66
2021/06/09 01:54:48;;;;;;;;;8.75;6.00;;;;;18.14;56.55;101900.50;5075106;27;45662;-70
2021/06/09 01:57:15;;;;;;;;;7.00;6.00;;;;;18.09;56.64;101894.84;5071547;27;46631;-64
2021/06/09 01:59:42;;;;;;;;;6.25;6.25;;;;;18.07;56.78;101896.03;5073043;27;45618;-66
2021/06/09 02:02:09;;;;;;;;;5.25;5.00;;;;;18.01;57.24;101898.38;5073107;27;45596;-67
2021/06/09 02:04:34;;;;;;;;;5.25;5.25;;;;;17.98;57.50;101895.22;5070264;27;45686;-65
2021/06/09 02:07:00;;;;;;;;;7.00;7.00;;;;;17.94;57.83;101896.56;5075968;27;46304;-66
2021/06/09 02:09:25;;;;;;;;;5.50;5.50;;;;;17.92;57.21;101903.91;5069411;27;45703;-67
2021/06/09 02:11:51;;;;;;;;;6.00;6.00;;;;;17.89;57.69;101904.25;5075309;27;45559;-72
2021/06/09 02:14:18;;;;;;;;;5.25;5.25;;;;;17.87;58.53;101906.25;5073227;27;45417;-65
2021/06/09 02:16:45;;;;;;;;;7.00;6.50;;;;;17.83;57.56;101890.56;5073064;27;45586;-65
2021/06/09 02:19:10;;;;;;;;;5.75;5.75;;;;;17.80;57.93;101896.25;5074025;27;45537;-64
2021/06/09 02:21:38;;;;;;;;;7.00;7.00;;;;;17.79;58.39;101893.69;5072293;27;45451;-68
2021/06/09 02:24:05;;;;;;;;;6.00;6.00;;;;;17.76;57.99;101889.53;5070392;27;45561;-64
2021/06/09 02:26:31;;;;;;;;;7.50;7.00;;;;;17.74;58.54;101890.69;5063137;27;46471;-65
2021/06/09 02:29:00;;;;;;;;;5.00;5.00;;;;;17.72;58.47;101888.19;5068815;27;45415;-68
2021/06/09 02:31:26;;;;;;;;;7.00;7.00;;;;;17.70;58.35;101895.53;5072485;27;45536;-64
2021/06/09 02:33:52;;;;;;;;;5.75;5.75;;;;;17.68;58.35;101886.00;5075694;27;45506;-67
2021/06/09 02:36:17;;;;;;;;;9.00;7.50;;;;;17.65;58.01;101887.19;5077387;27;46221;-65
2021/06/09 02:38:43;;;;;;;;;6.50;6.50;;;;;17.63;58.73;101889.22;5072926;27;45373;-64
2021/06/09 02:41:09;;;;;;;;;5.50;5.50;;;;;17.61;58.58;101884.03;5075427;27;45472;-68
2021/06/09 02:43:35;;;;;;;;;10.25;7.00;;;;;17.58;58.49;101886.19;5067916;27;45585;-64
2021/06/09 02:46:06;;;;;;;;;6.00;6.00;;;;;17.55;58.83;101891.88;5080843;27;45511;-68
2021/06/09 02:48:32;;;;;;;;;8.00;8.00;;;;;17.54;59.27;101892.88;5071764;27;45814;-67
2021/06/09 02:51:02;;;;;;;;;8.00;7.00;;;;;17.51;59.43;101888.69;5069262;27;45456;-67
2021/06/09 02:53:39;;;;;;;;;8.25;6.00;;;;;17.49;58.90;101897.91;5078392;27;45732;-71
2021/06/09 02:56:35;;;;;;;;;6.75;6.50;;;;;17.44;59.34;101890.38;5068961;27;46428;-71
2021/06/09 02:59:19;;;;;;;;;6.50;6.50;;;;;17.41;58.87;101896.88;5068162;27;46029;-67
2021/06/09 03:02:04;;;;;;;;;7.00;6.50;;;;;17.36;58.74;101896.53;5070314;27;45522;-66
2021/06/09 03:05:09;;;;;;;;;6.75;6.00;;;;;17.33;58.95;101891.53;5069409;27;45562;-66
2021/06/09 03:07:43;;;;;;;;;7.25;6.25;;;;;17.31;59.29;101890.00;5047056;28;46399;-67
2021/06/09 03:10:25;;;;;;;;;10.25;6.75;;;;;17.30;59.48;101894.53;5030354;28;45441;-67
2021/06/09 03:13:05;;;;;;;;;7.50;7.50;;;;;17.28;59.15;101891.19;5052084;28;45614;-64
2021/06/09 03:15:37;;;;;;;;;9.50;7.25;;;;;17.27;59.48;101902.03;5048844;28;45666;-67
2021/06/09 03:18:11;;;;;;;;;6.00;6.00;;;;;17.24;59.30;101894.38;5057511;28;46440;-67
2021/06/09 03:20:57;;;;;;;;;7.50;7.00;;;;;17.21;59.82;101890.19;5041202;28;45629;-67
2021/06/09 03:23:31;;;;;;;;;10.50;8.00;;;;;17.18;60.15;101895.84;5044943;28;46593;-66
2021/06/09 03:26:03;;;;;;;;;7.75;7.25;;;;;17.14;60.16;101887.34;5049013;28;45734;-67
2021/06/09 03:28:51;;;;;;;;;6.50;6.50;;;;;17.12;60.51;101889.34;5045912;28;45588;-65
2021/06/09 03:31:22;;;;;;;;;7.75;7.75;;;;;17.09;60.87;101892.34;5046118;28;45643;-65
2021/06/09 03:33:51;;;;;;;;;9.00;7.00;;;;;17.07;61.00;101894.34;5055539;28;45505;-64
2021/06/09 03:36:22;;;;;;;;;8.50;7.00;;;;;17.07;60.33;101894.34;5047335;28;45536;-68
2021/06/09 03:38:59;;;;;;;;;7.00;7.00;;;;;17.07;60.19;101898.84;5045176;28;47255;-67
2021/06/09 03:41:40;;;;;;;;;10.00;8.25;;;;;17.05;60.32;101898.16;5042967;28;45801;-68
2021/06/09 03:44:10;;;;;;;;;11.50;9.00;;;;;17.04;60.43;101888.50;5076424;27;45515;-71
2021/06/09 03:46:40;;;;;;;;;9.50;8.00;;;;;17.01;60.92;101897.63;5073499;27;45480;-67
2021/06/09 03:49:12;;;;;;;;;10.00;8.00;;;;;17.00;60.74;101909.34;5068234;27;45991;-68
2021/06/09 03:51:39;;;;;;;;;8.00;8.00;;;;;16.97;60.40;101899.81;5071039;27;45545;-66
2021/06/09 03:54:06;;;;;;;;;8.50;7.50;;;;;16.97;60.55;101902.50;5070880;27;45554;-71
2021/06/09 03:56:33;;;;;;;;;9.75;8.25;;;;;16.97;60.99;101893.66;5068178;27;45511;-65
2021/06/09 03:59:00;;;;;;;;;8.50;8.00;;;;;16.95;61.12;101896.47;5071417;27;46268;-66
2021/06/09 04:01:35;;;;;;;;;12.50;9.50;;;;;16.94;61.38;101896.66;5071386;27;45471;-71
2021/06/09 04:04:04;;;;;;;;;13.00;12.00;;;;;16.94;60.71;101904.66;5071454;27;45522;-65
2021/06/09 04:06:31;;;;;;;;;10.50;9.75;;;;;16.94;60.94;101900.16;5069234;27;45473;-66
2021/06/09 04:08:59;;;;;;;;;10.00;10.00;;;;;16.95;61.19;101891.13;5074879;27;46623;-65
2021/06/09 04:11:27;;;;;;;;;11.00;10.50;;;;;16.96;60.61;101892.81;5069193;27;45575;-65
2021/06/09 04:13:55;;;;;;;;;12.25;10.50;;;;;16.98;61.42;101888.13;5069139;27;45531;-67
2021/06/09 04:16:23;;;;;;;;;11.00;9.50;;;;;17.02;61.56;101899.34;5068817;27;45454;-72
2021/06/09 04:18:50;;;;;;;;;12.00;10.00;;;;;17.06;61.61;101891.81;5071617;27;45508;-67
2021/06/09 04:21:16;;;;;;;;;14.50;11.75;;;;;17.10;61.78;101893.16;5070884;27;45564;-67
2021/06/09 04:23:41;;;;;;;;;11.50;10.25;;;;;17.14;62.21;101905.22;5067103;27;45443;-67
2021/06/09 04:26:11;;;;;;;;;13.00;12.75;;;;;17.20;62.38;101889.34;5069709;27;45576;-71
2021/06/09 04:28:37;;;;;;;;;11.50;10.75;;;;;17.25;62.68;101891.50;5066403;27;46515;-67
2021/06/09 04:31:02;;;;;;;;;14.50;13.25;;;;;17.33;62.31;101893.34;5070590;27;45479;-66
2021/06/09 04:33:31;;;;;;;;;14.00;14.00;;;;;17.38;62.69;101894.56;5073193;27;45535;-69
2021/06/09 04:35:57;;;;;;;;;15.50;12.75;;;;;17.43;62.21;101894.03;5074670;27;45470;-67
2021/06/09 04:38:23;;;;;;;;;19.00;16.00;;;;;17.48;61.14;101894.38;5072635;27;46130;-68
2021/06/09 04:40:52;;;;;;;;;17.00;17.00;;;;;17.55;61.62;101902.56;5066815;27;45686;-65
2021/06/09 04:43:21;;;;;;;;;22.00;17.00;;;;;17.61;60.91;101897.38;5065956;27;45609;-68
2021/06/09 04:45:47;;;;;;;;;19.50;18.50;;;;;17.69;61.22;101901.88;5067766;27;45561;-66
2021/06/09 04:48:15;;;;;;;;;26.00;24.00;;;;;17.78;61.67;101900.06;5069392;27;45508;-64
2021/06/09 04:50:43;;;;;;;;;21.00;20.75;;;;;17.87;61.26;101895.56;5073897;27;45478;-64
2021/06/09 04:53:12;;;;;;;;;23.75;23.00;;;;;17.95;60.87;101903.56;5063390;27;45504;-66
2021/06/09 04:55:40;;;;;;;;;26.75;21.50;;;;;18.05;60.92;101904.19;5068464;27;45413;-71
2021/06/09 04:58:05;;;;;;;;;23.25;20.00;;;;;18.13;61.41;101901.53;5072456;27;46162;-66
2021/06/09 05:00:31;;;;;;;;;20.00;20.00;;;;;18.21;60.27;101904.19;5065878;27;45958;-71
2021/06/09 05:02:56;;;;;;;;;20.25;18.50;;;;;18.29;59.78;101910.50;5072792;27;45603;-71
2021/06/09 05:05:22;;;;;;;;;20.00;19.50;;;;;18.36;59.02;101912.31;5072350;27;45399;-71
2021/06/09 05:07:47;;;;;;;;;25.25;20.00;;;;;18.45;58.61;101907.81;5066790;27;45396;-67
2021/06/09 05:10:14;;;;;;;;;23.25;21.25;;;;;18.53;58.56;101913.13;5068871;27;45521;-66
2021/06/09 05:13:05;;;;;;;;;21.00;17.75;;;;;18.61;58.41;101915.75;5077887;27;45476;-65
2021/06/09 05:15:36;;;;;;;;;21.00;19.25;;;;;18.67;58.43;101909.72;5065447;27;46015;-67
2021/06/09 05:18:09;;;;;;;;;20.00;18.75;;;;;18.73;58.06;101907.34;5067124;27;46344;-67
2021/06/09 05:20:38;;;;;;;;;20.50;18.00;;;;;18.81;57.48;101904.66;5067029;27;45566;-66
2021/06/09 05:23:13;;;;;;;;;17.50;16.25;;;;;18.88;58.39;101922.50;5077924;27;45516;-65
2021/06/09 05:25:40;;;;;;;;;17.00;16.00;;;;;18.98;57.75;101921.47;5072002;27;45495;-65
2021/06/09 05:28:07;;;;;;;;;17.75;15.75;;;;;19.04;57.57;101926.97;5067401;27;47299;-67
2021/06/09 05:30:33;;;;;;;;;22.75;16.25;;;;;19.12;57.21;101918.88;5060637;27;45446;-67
2021/06/09 05:33:01;;;;;;;;;18.50;17.00;;;;;19.20;57.36;101915.31;5060405;27;45373;-66
2021/06/09 05:35:27;;;;;;;;;15.50;14.50;;;;;19.31;57.58;101919.41;5067843;27;45554;-69
2021/06/09 05:37:52;;;;;;;;;13.00;12.75;;;;;19.41;57.29;101916.50;5068052;27;45581;-67
2021/06/09 05:40:20;;;;;;;;;15.75;15.75;;;;;19.52;56.77;101919.59;5067476;27;45665;-67
2021/06/09 05:42:47;;;;;;;;;14.25;14.25;;;;;19.63;56.08;101914.81;5070512;27;45496;-70
2021/06/09 05:45:13;;;;;;;;;17.75;16.00;;;;;19.72;56.32;101919.13;5063343;27;45583;-68
2021/06/09 05:47:45;;;;;;;;;12.75;12.75;;;;;19.84;55.82;101922.22;5063875;27;45754;-67
2021/06/09 05:50:16;;;;;;;;;14.25;13.50;;;;;19.94;55.39;101926.28;5063829;27;45574;-66
2021/06/09 05:52:41;;;;;;;;;16.50;16.00;;;;;20.04;55.39;101927.88;5065712;27;45501;-66
2021/06/09 05:55:16;;;;;;;;;17.25;13.75;;;;;20.13;55.51;101924.94;5069875;27;45517;-66
2021/06/09 05:57:43;;;;;;;;;19.00;16.75;;;;;20.19;54.75;101921.50;5068736;27;45637;-69
2021/06/09 06:00:09;;;;;;;;;17.50;14.75;;;;;20.25;54.42;101919.09;5066061;27;45598;-67
2021/06/09 06:02:36;;;;;;;;;16.00;14.50;;;;;20.35;54.27;101915.13;5065228;27;45722;-69
2021/06/09 06:05:03;;;;;;;;;16.75;16.50;;;;;20.47;54.19;101918.16;5069667;27;45417;-67
2021/06/09 06:07:30;;;;;;;;;13.75;12.50;;;;;20.56;53.87;101918.94;5064814;27;46284;-69
2021/06/09 06:09:56;;;;;;;;;19.00;18.00;;;;;20.62;53.62;101918.19;5067323;27;45619;-71
2021/06/09 06:12:26;;;;;;;;;20.25;19.75;;;;;20.66;53.41;101919.50;5068126;27;45491;-66
2021/06/09 06:14:52;;;;;;;;;18.50;18.50;;;;;20.74;53.13;101922.06;5067182;27;45459;-73
2021/06/09 06:17:18;;;;;;;;;25.00;22.00;;;;;20.76;53.30;101920.03;5064218;27;46504;-64
2021/06/09 06:19:43;;;;;;;;;27.00;23.75;;;;;20.79;52.93;101916.94;5071337;27;45677;-67
2021/06/09 06:22:10;;;;;;;;;23.25;21.50;;;;;20.84;53.28;101919.06;5070994;27;45503;-72
2021/06/09 06:24:40;;;;;;;;;25.50;21.75;;;;;20.90;52.71;101922.88;5071626;27;45563;-64
2021/06/09 06:27:08;;;;;;;;;22.00;20.25;;;;;20.98;52.73;101917.38;5061673;27;48133;-68
2021/06/09 06:29:34;;;;;;;;;26.25;23.75;;;;;21.13;52.30;101917.34;5063279;27;45535;-69
2021/06/09 06:32:00;;;;;;;;;28.25;26.75;;;;;21.17;51.54;101922.16;5071273;27;45627;-71
2021/06/09 06:34:26;;;;;;;;;27.75;26.00;;;;;21.15;52.38;101926.88;5051383;27;45564;-68
2021/06/09 06:36:52;;;;;;;;;28.25;27.50;;;;;21.21;51.44;101919.91;5069230;27;45421;-67
2021/06/09 06:39:18;;;;;;;;;30.25;27.00;;;;;21.25;51.67;101926.56;5061423;27;45612;-66
2021/06/09 06:41:43;;;;;;;;;28.25;27.75;;;;;21.31;51.87;101924.97;5064519;27;45704;-70
2021/06/09 06:44:09;;;;;;;;;33.00;27.75;;;;;21.37;51.71;101918.84;5065890;27;45748;-65
2021/06/09 06:46:34;;;;;;;;;31.25;27.50;;;;;21.44;51.15;101919.75;5070576;27;45488;-70
2021/06/09 06:49:00;;;;;;;;;30.00;27.25;;;;;21.48;51.77;101921.03;5071137;27;45429;-70
2021/06/09 06:51:26;;;;;;;;;28.50;25.75;;;;;21.57;52.30;101917.19;5072114;27;45703;-66
2021/06/09 06:53:56;;;;;;;;;32.50;30.00;;;;;21.68;51.16;101916.63;5060857;27;45527;-66
2021/06/09 06:56:24;;;;;;;;;31.50;28.50;;;;;21.73;50.95;101917.91;5064607;27;45682;-67
2021/06/09 06:58:51;;;;;;;;;26.75;26.75;;;;;21.79;51.55;101922.53;5072834;27;45528;-70
2021/06/09 07:01:23;;;;;;;;;35.25;32.00;;;;;21.89;50.82;101925.72;5073483;27;45462;-70
2021/06/09 07:03:49;;;;;;;;;32.75;29.50;;;;;21.93;50.46;101926.97;5071877;27;45474;-64
2021/06/09 07:06:16;;;;;;;;;32.00;27.75;;;;;22.00;51.24;101925.16;5087142;27;47101;-65
2021/06/09 07:08:41;;;;;;;;;32.75;28.75;;;;;22.12;50.54;101925.47;5068934;27;45682;-67
2021/06/09 07:11:11;;;;;;;;;30.50;25.50;;;;;22.26;50.55;101926.41;5073698;27;45563;-70
2021/06/09 07:13:36;;;;;;;;;32.75;29.50;;;;;22.47;49.97;101929.00;5071524;27;45530;-67
2021/06/09 07:16:05;;;;;;;;;28.50;28.25;;;;;22.62;49.39;101925.34;5072032;27;45470;-66
2021/06/09 07:18:31;;;;;;;;;30.25;29.25;;;;;22.72;49.71;101933.88;5076890;27;46044;-69
2021/06/09 07:20:58;;;;;;;;;37.00;27.75;;;;;22.88;49.54;101921.94;5070692;27;45487;-70
2021/06/09 07:23:24;;;;;;;;;33.50;31.00;;;;;23.09;49.00;101924.50;5067169;27;45500;-71
2021/06/09 07:25:51;;;;;;;;;38.50;33.25;;;;;23.27;47.95;101926.63;5066295;27;46257;-67
2021/06/09 07:28:18;;;;;;;;;38.00;33.00;;;;;23.47;48.23;101923.13;5063532;27;45480;-69
2021/06/09 07:30:45;;;;;;;;;31.75;27.75;;;;;23.70;47.46;101925.41;5087816;27;45593;-69
2021/06/09 07:33:12;;;;;;;;;36.25;30.75;;;;;23.86;46.98;101927.69;5073877;27;45496;-67
2021/06/09 07:35:38;;;;;;;;;29.50;26.25;;;;;24.07;46.94;101920.44;5068008;27;45632;-64
2021/06/09 07:38:27;;;;;;;;;28.25;27.25;;;;;24.36;45.81;101930.75;5068732;27;45710;-66
2021/06/09 07:40:59;;;;;;;;;30.75;27.50;;;;;24.54;44.55;101926.56;5066020;27;45468;-69
2021/06/09 07:43:33;;;;;;;;;29.75;28.00;;;;;24.67;45.78;101927.31;5068650;27;45599;-66
2021/06/09 07:46:00;;;;;;;;;34.00;29.00;;;;;25.02;45.23;101920.72;5069359;27;46108;-67
2021/06/09 07:48:28;;;;;;;;;29.00;27.25;;;;;25.38;45.35;101927.38;5072173;27;45547;-65
2021/06/09 07:51:08;;;;;;;;;30.25;28.00;;;;;25.86;45.10;101919.50;5068023;27;45844;-68
2021/06/09 07:53:36;;;;;;;;;31.50;29.00;;;;;26.34;42.91;101916.09;5067392;27;45508;-65
2021/06/09 07:56:02;;;;;;;;;27.25;24.50;;;;;27.19;43.07;101928.78;5069547;27;45586;-67
2021/06/09 07:58:31;;;;;;;;;28.50;23.25;;;;;29.52;40.22;101926.16;5068737;27;45503;-66
2021/06/09 08:00:58;;;;;;;;;33.00;29.50;;;;;31.92;34.05;101918.00;5085139;27;45799;-66
2021/06/09 08:03:25;;;;;;;;;27.25;26.25;;;;;33.73;31.62;101920.09;5068461;27;45593;-71
2021/06/09 08:05:52;;;;;;;;;27.50;24.25;;;;;35.43;31.16;101929.94;5067468;27;45537;-67
2021/06/09 08:08:18;;;;;;;;;28.25;24.50;;;;;37.01;30.70;101940.16;5077116;27;45897;-67
2021/06/09 08:10:43;;;;;;;;;31.75;29.00;;;;;38.82;27.54;101939.19;5076290;27;45561;-71
2021/06/09 08:13:10;;;;;;;;;24.00;23.00;;;;;40.30;27.26;101931.75;5077284;27;45490;-68
2021/06/09 08:15:37;;;;;;;;;25.00;24.50;;;;;41.73;23.03;101942.91;5086785;27;47847;-66
2021/06/09 08:18:04;;;;;;;;;26.50;24.50;;;;;42.60;23.16;101939.63;5075447;27;45463;-67
2021/06/09 08:20:30;;;;;;;;;22.25;19.00;;;;;43.38;23.35;101947.25;5067741;27;45415;-71
2021/06/09 08:22:57;;;;;;;;;19.25;18.00;;;;;44.50;22.43;101952.47;5076808;27;45527;-65
2021/06/09 08:25:24;;;;;;;;;21.50;21.50;;;;;45.30;22.00;101949.94;5073190;27;46122;-65
2021/06/09 08:27:51;;;;;;;;;16.00;16.00;;;;;46.07;20.66;101943.88;5075153;27;45555;-68
2021/06/09 08:30:18;;;;;;;;;16.25;16.25;;;;;46.75;19.82;101948.19;5078114;27;45527;-70
2021/06/09 08:32:44;;;;;;;;;12.00;12.00;;;;;47.13;19.09;101944.53;5072477;27;45370;-71
2021/06/09 08:35:10;;;;;;;;;14.75;14.75;;;;;47.66;15.70;101938.25;5071000;27;45482;-71
2021/06/09 08:37:37;;;;;;;;;8.75;8.75;;;;;47.94;17.89;101940.69;5062402;27;45405;-70
2021/06/09 08:40:08;;;;;;;;;10.50;10.50;;;;;48.66;17.03;101942.47;5070759;27;45622;-68
2021/06/09 08:42:36;;;;;;;;;14.25;12.25;;;;;49.23;15.75;101945.06;5078880;27;45554;-68
2021/06/09 08:45:07;;;;;;;;;11.50;10.50;;;;;49.38;15.89;101936.78;5069587;27;45632;-67
2021/06/09 08:47:35;;;;;;;;;8.25;8.25;;;;;49.71;15.55;101939.47;5074848;27;45469;-71
2021/06/09 08:50:03;;;;;;;;;10.00;10.00;;;;;50.31;15.17;101938.22;5063395;27;45834;-71
2021/06/09 08:52:30;;;;;;;;;13.50;11.25;;;;;50.17;14.78;101928.91;5069691;27;45661;-67
2021/06/09 08:54:55;;;;;;;;;15.25;14.75;;;;;49.85;14.95;101933.13;5077654;27;46810;-71
2021/06/09 08:57:21;;;;;;;;;8.75;8.75;;;;;49.93;14.90;101933.97;5070655;27;45629;-67
2021/06/09 08:59:47;;;;;;;;;9.75;9.00;;;;;50.38;14.57;101931.84;5070872;27;45346;-66
2021/06/09 09:02:13;;;;;;;;;7.75;7.75;;;;;50.92;14.29;101935.63;5073831;27;45541;-70
2021/06/09 09:04:40;;;;;;;;;6.75;6.75;;;;;51.35;13.66;101934.84;5066183;27;45587;-66
2021/06/09 09:07:10;;;;;;;;;6.75;5.00;;;;;51.30;13.75;101941.69;5076355;27;45629;-71
2021/06/09 09:09:37;;;;;;;;;6.00;6.00;;;;;51.38;13.73;101946.13;5067962;27;45684;-69
2021/06/09 09:12:03;;;;;;;;;7.00;7.00;;;;;51.29;13.47;101945.72;5065436;27;45498;-73
2021/06/09 09:14:29;;;;;;;;;5.75;5.75;;;;;50.90;14.02;101952.09;5066505;27;46829;-68
2021/06/09 09:17:02;;;;;;;;;7.00;7.00;;;;;49.77;12.06;101941.91;5067583;27;45386;-65
2021/06/09 09:19:34;;;;;;;;;6.25;6.25;;;;;48.59;13.86;101942.38;5075504;27;45443;-69
2021/06/09 09:21:59;;;;;;;;;5.75;5.75;;;;;47.82;14.68;101943.69;5072471;27;45420;-67
2021/06/09 09:24:42;;;;;;;;;6.75;5.75;;;;;47.24;14.81;101938.34;5066549;27;45571;-76
2021/06/09 09:27:08;;;;;;;;;7.00;7.00;;;;;46.10;14.82;101932.81;5066737;27;45583;-69
2021/06/09 09:29:34;;;;;;;;;3.75;3.50;;;;;45.03;15.66;101930.91;5073300;27;45540;-71
2021/06/09 09:32:09;;;;;;;;;6.25;6.00;;;;;44.04;16.04;101935.13;5074760;27;45575;-69
2021/06/09 09:34:48;;;;;;;;;5.50;5.50;;;;;43.73;17.25;101938.50;5069469;27;45599;-68
2021/06/09 09:37:16;;;;;;;;;8.00;6.50;;;;;43.97;17.19;101935.72;5071291;27;45718;-69
2021/06/09 09:39:45;;;;;;;;;8.25;7.00;;;;;43.85;17.88;101943.25;5066647;27;45635;-68
2021/06/09 09:42:17;;;;;;;;;4.50;4.50;;;;;43.71;17.22;101949.16;5069189;27;45598;-72
2021/06/09 09:44:42;;;;;;;;;7.00;4.75;;;;;43.35;16.83;101945.97;5075692;27;45462;-70
2021/06/09 09:47:15;;;;;;;;;6.00;6.00;;;;;43.07;17.01;101950.50;5069020;27;45619;-69
2021/06/09 09:49:41;;;;;;;;;4.00;4.00;;;;;42.64;16.52;101943.34;5066849;27;45547;-68
2021/06/09 09:52:07;;;;;;;;;5.00;4.00;;;;;42.13;17.33;101945.31;5080727;27;45537;-72
2021/06/09 09:54:35;;;;;;;;;4.75;4.75;;;;;41.83;17.42;101951.66;5068926;27;45823;-70
2021/06/09 09:57:03;;;;;;;;;3.25;3.25;;;;;41.72;17.72;101946.78;5076130;27;45476;-75
2021/06/09 09:59:30;;;;;;;;;6.50;6.00;;;;;41.34;16.56;101940.06;5082544;27;46007;-76
2021/06/09 10:01:58;;;;;;;;;5.50;4.50;;;;;40.45;16.94;101927.69;5074184;27;45861;-67
2021/06/09 10:04:32;;;;;;;;;3.00;3.00;;;;;40.01;19.17;101935.06;5078737;27;46059;-69
2021/06/09 10:06:58;;;;;;;;;1.75;1.75;;;;;40.24;18.28;101930.28;5072681;27;45576;-72
2021/06/09 10:09:29;;;;;;;;;2.75;2.75;;;;;40.51;19.26;101927.22;5072673;27;45482;-69
2021/06/09 10:11:59;;;;;;;;;3.00;2.75;;;;;40.74;18.38;101925.13;5060962;27;45361;-71
2021/06/09 10:14:41;;;;;;;;;4.50;3.25;;;;;40.64;17.32;101933.75;5070754;27;46498;-74
2021/06/09 10:17:12;;;;;;;;;6.00;4.50;;;;;40.50;16.69;101935.84;5062191;27;45497;-72
2021/06/09 10:19:41;;;;;;;;;3.00;3.00;;;;;40.26;19.06;101936.28;5081465;27;45428;-68
2021/06/09 10:22:16;;;;;;;;;4.50;4.50;;;;;40.19;17.35;101937.56;5082120;27;45518;-74
2021/06/09 10:24:51;;;;;;;;;5.50;4.25;;;;;39.96;18.59;101936.03;5068504;27;46362;-69
2021/06/09 10:27:19;;;;;;;;;6.50;5.00;;;;;40.02;18.59;101926.47;5073296;27;45754;-71
2021/06/09 10:29:45;;;;;;;;;4.00;4.00;;;;;40.37;18.85;101927.38;5064367;27;45510;-68
2021/06/09 10:32:16;;;;;;;;;4.25;4.25;;;;;40.79;18.73;101938.00;5063463;27;45705;-72
2021/06/09 10:34:42;;;;;;;;;4.75;3.75;;;;;40.88;18.30;101930.50;5053521;27;46275;-74
2021/06/09 10:37:09;;;;;;;;;4.00;4.00;;;;;40.86;17.44;101929.22;5061893;27;45891;-69
2021/06/09 10:39:37;;;;;;;;;5.00;5.00;;;;;40.79;17.79;101927.72;5044889;27;45608;-70
2021/06/09 10:42:06;;;;;;;;;5.00;5.00;;;;;40.74;17.50;101929.84;5065717;27;45615;-68
2021/06/09 10:44:34;;;;;;;;;5.00;5.00;;;;;40.75;16.68;101923.97;5063291;27;46727;-70
2021/06/09 10:47:02;;;;;;;;;4.00;4.00;;;;;40.85;18.87;101925.59;5069004;27;45589;-74
2021/06/09 10:49:32;;;;;;;;;3.25;3.25;;;;;41.15;17.87;101923.81;5062990;27;45680;-71
2021/06/09 10:52:01;;;;;;;;;4.75;4.25;;;;;41.42;18.18;101921.75;5072331;27;45483;-72
2021/06/09 10:54:26;;;;;;;;;4.00;4.00;;;;;41.60;18.43;101917.81;5065265;27;48652;-73
2021/06/09 10:56:54;;;;;;;;;4.50;4.00;;;;;41.81;16.99;101912.31;5066038;27;45516;-71
2021/06/09 10:59:25;;;;;;;;;4.25;4.00;;;;;41.89;18.92;101918.97;5064877;27;45484;-69
2021/06/09 11:01:57;;;;;;;;;4.75;4.75;;;;;42.17;18.22;101924.88;5063661;27;45626;-70
2021/06/09 11:04:24;;;;;;;;;6.00;4.75;;;;;42.44;17.76;101920.78;5065062;27;45460;-71
2021/06/09 11:06:53;;;;;;;;;4.25;3.75;;;;;42.71;17.92;101910.28;5068378;27;45566;-74
2021/06/09 11:09:24;;;;;;;;;4.50;4.50;;;;;42.61;17.49;101905.94;5063914;27;45604;-72
2021/06/09 11:12:14;;;;;;;;;5.75;5.00;;;;;42.78;17.46;101918.06;5068473;27;45755;-73
2021/06/09 11:14:50;;;;;;;;;3.25;3.00;;;;;43.05;17.13;101917.47;5059590;27;47498;-71
2021/06/09 11:17:32;;;;;;;;;3.00;3.00;;;;;43.30;16.96;101904.47;5072883;27;45517;-72
2021/06/09 11:20:14;;;;;;;;;2.00;2.00;;;;;43.41;16.80;101910.41;5071953;27;45570;-75
2021/06/09 11:22:46;;;;;;;;;3.00;3.00;;;;;43.61;16.52;101908.69;5063501;27;45523;-69
2021/06/09 11:25:20;;;;;;;;;3.50;3.50;;;;;43.59;16.30;101902.66;5076360;27;45566;-74
2021/06/09 11:28:01;;;;;;;;;5.25;5.25;;;;;43.45;16.94;101899.38;5063194;27;45545;-77